Time;durP1;ratioP1;P1;durP2;ratioP2;P2;SDS_P1;SDS_P2;PMS_P1;PMS_P2;Temp;Humidity;BMP_temperature;BMP_pressure;BME280_temperature;BME280_humidity;BME280_pressure;Samples;Min_cycle;Max_cycle;Signal;HPM_P1;HPM_P2
2023/04/23 00:02:08;;;;;;;12.83;11.70;;;15.70;99.90;;;;;;5019256;28;20252;-58
2023/04/23 00:04:38;;;;;;;13.47;12.17;;;15.70;99.90;;;;;;5020002;28;20271;-58
2023/04/23 00:07:07;;;;;;;13.30;12.07;;;15.70;99.90;;;;;;5020616;28;20754;-60
2023/04/23 00:09:38;;;;;;;14.67;13.20;;;15.60;99.90;;;;;;5021276;28;20227;-61
2023/04/23 00:12:07;;;;;;;13.43;12.23;;;15.60;99.90;;;;;;5020605;28;20235;-60
2023/04/23 00:14:36;;;;;;;13.80;12.50;;;15.50;99.90;;;;;;5027666;28;20236;-62
2023/04/23 00:17:04;;;;;;;13.67;12.47;;;15.60;99.90;;;;;;5024408;28;20240;-62
2023/04/23 00:19:32;;;;;;;13.20;12.00;;;15.50;99.90;;;;;;5032007;28;20228;-62
2023/04/23 00:22:00;;;;;;;14.97;13.57;;;15.50;99.90;;;;;;5032306;28;20225;-62
2023/04/23 00:24:28;;;;;;;14.50;13.10;;;15.50;99.90;;;;;;5032323;28;20247;-62
2023/04/23 00:26:57;;;;;;;13.33;12.07;;;15.40;99.90;;;;;;5032266;28;20225;-62
2023/04/23 00:29:26;;;;;;;12.53;11.37;;;15.50;99.90;;;;;;5023836;28;20263;-62
2023/04/23 00:31:54;;;;;;;13.23;11.93;;;15.40;99.90;;;;;;5046834;28;21100;-61
2023/04/23 00:34:22;;;;;;;13.30;12.07;;;15.40;99.90;;;;;;5032053;28;20635;-62
2023/04/23 00:36:50;;;;;;;12.80;11.60;;;15.40;99.90;;;;;;5032130;28;20232;-62
2023/04/23 00:39:18;;;;;;;13.13;12.00;;;15.50;99.90;;;;;;5048807;28;20229;-62
2023/04/23 00:41:47;;;;;;;13.83;12.53;;;15.40;99.90;;;;;;5035634;28;20220;-62
2023/04/23 00:44:16;;;;;;;12.80;11.60;;;15.40;99.90;;;;;;5035701;28;20221;-62
2023/04/23 00:46:46;;;;;;;13.30;12.10;;;15.50;99.90;;;;;;5034210;28;20266;-62
2023/04/23 00:49:14;;;;;;;13.77;12.47;;;15.40;99.90;;;;;;5035519;28;20221;-62
2023/04/23 00:51:42;;;;;;;13.63;12.33;;;15.40;99.90;;;;;;5035449;28;20224;-62
2023/04/23 00:54:10;;;;;;;16.27;14.77;;;15.40;99.90;;;;;;5035550;28;20217;-62
2023/04/23 00:56:38;;;;;;;20.60;18.63;;;15.20;99.90;;;;;;5035323;28;20221;-62
2023/04/23 00:59:06;;;;;;;26.53;23.93;;;14.90;99.90;;;;;;5027113;28;20220;-63
2023/04/23 01:01:36;;;;;;;27.80;25.00;;;14.50;99.90;;;;;;5034739;28;20224;-56
2023/04/23 01:04:04;;;;;;;29.23;26.40;;;14.20;99.90;;;;;;5035178;28;20225;-56
2023/04/23 01:06:33;;;;;;;30.53;27.53;;;14.00;99.90;;;;;;5035168;28;20307;-57
2023/04/23 01:09:01;;;;;;;33.23;29.93;;;13.80;99.90;;;;;;5035289;28;20220;-56
2023/04/23 01:11:30;;;;;;;34.23;30.73;;;13.60;99.90;;;;;;5035108;28;20217;-56
2023/04/23 01:13:59;;;;;;;35.47;30.97;;;13.50;99.90;;;;;;5035406;28;20221;-56
2023/04/23 01:16:27;;;;;;;34.27;30.77;;;13.40;99.90;;;;;;5030963;28;20217;-56
2023/04/23 01:18:57;;;;;;;36.60;31.90;;;13.30;99.90;;;;;;5031869;28;20324;-56
2023/04/23 01:21:26;;;;;;;33.87;30.30;;;13.20;99.90;;;;;;5034565;28;20232;-57
2023/04/23 01:23:55;;;;;;;30.87;27.70;;;13.20;99.90;;;;;;5033451;28;20224;-57
2023/04/23 01:26:24;;;;;;;31.00;27.70;;;13.00;99.90;;;;;;5034816;28;20220;-56
2023/04/23 01:28:52;;;;;;;30.97;27.67;;;12.90;99.90;;;;;;5026801;28;20588;-57
2023/04/23 01:31:21;;;;;;;28.97;25.97;;;12.90;99.90;;;;;;5034176;28;20247;-56
2023/04/23 01:33:51;;;;;;;30.17;26.20;;;12.80;99.90;;;;;;5034584;28;20225;-57
2023/04/23 01:36:19;;;;;;;28.60;25.50;;;12.70;99.90;;;;;;5034502;28;20228;-57
2023/04/23 01:38:47;;;;;;;30.53;25.77;;;12.60;99.90;;;;;;5034548;28;20591;-56
2023/04/23 01:41:17;;;;;;;29.57;26.37;;;12.60;99.90;;;;;;5034678;28;20220;-57
2023/04/23 01:43:45;;;;;;;28.73;25.37;;;12.60;99.90;;;;;;5034480;28;20228;-56
2023/04/23 01:46:14;;;;;;;30.13;25.23;;;12.60;99.90;;;;;;5032436;28;20327;-56
2023/04/23 01:48:42;;;;;;;26.27;23.57;;;12.60;99.90;;;;;;5031460;28;20255;-56
2023/04/23 01:51:10;;;;;;;27.73;24.73;;;12.50;99.90;;;;;;5049536;28;20242;-56
2023/04/23 01:53:38;;;;;;;25.20;21.90;;;12.50;99.90;;;;;;5034533;28;20252;-57
2023/04/23 01:56:08;;;;;;;24.03;20.97;;;12.40;99.90;;;;;;5034700;28;20256;-56
2023/04/23 01:58:38;;;;;;;23.60;21.07;;;12.40;99.90;;;;;;5026355;28;20684;-56
2023/04/23 02:01:06;;;;;;;23.77;21.23;;;12.40;99.90;;;;;;5024716;28;20607;-56
2023/04/23 02:03:34;;;;;;;24.43;21.70;;;12.40;99.90;;;;;;5033967;28;20706;-56
2023/04/23 02:06:03;;;;;;;23.07;20.67;;;12.30;99.90;;;;;;5049445;28;20319;-56
2023/04/23 02:08:32;;;;;;;22.47;20.10;;;12.30;99.90;;;;;;5033988;28;20636;-56
2023/04/23 02:11:00;;;;;;;21.80;19.50;;;12.20;99.90;;;;;;5049478;28;20246;-56
2023/04/23 02:13:28;;;;;;;21.47;19.17;;;12.20;99.90;;;;;;5033929;28;20225;-56
2023/04/23 02:15:57;;;;;;;21.67;19.40;;;12.20;99.90;;;;;;5032774;28;20220;-56
2023/04/23 02:18:26;;;;;;;21.60;19.33;;;12.00;99.90;;;;;;5044006;28;20315;-55
2023/04/23 02:20:55;;;;;;;19.83;17.07;;;12.10;99.90;;;;;;5033917;28;20903;-56
2023/04/23 02:23:23;;;;;;;20.60;18.13;;;12.00;99.90;;;;;;5033921;28;20223;-56
2023/04/23 02:25:51;;;;;;;19.30;17.37;;;12.00;99.90;;;;;;5033961;28;20597;-56
2023/04/23 02:28:19;;;;;;;18.17;16.10;;;11.90;99.90;;;;;;5028240;28;20228;-56
2023/04/23 02:30:51;;;;;;;17.73;15.93;;;11.80;99.90;;;;;;5031087;28;20246;-57
2023/04/23 02:33:20;;;;;;;19.20;16.33;;;11.80;99.90;;;;;;5033742;28;20227;-56
2023/04/23 02:35:49;;;;;;;16.67;14.70;;;11.70;99.90;;;;;;5033820;28;20266;-56
2023/04/23 02:38:17;;;;;;;17.67;15.63;;;11.60;99.90;;;;;;5049063;28;20762;-56
2023/04/23 02:40:46;;;;;;;16.63;14.93;;;11.60;99.90;;;;;;5012523;28;20617;-55
2023/04/23 02:43:14;;;;;;;16.60;14.90;;;11.70;99.90;;;;;;5013821;28;20234;-56
2023/04/23 02:45:43;;;;;;;16.40;14.50;;;11.70;99.90;;;;;;5013638;28;20323;-56
2023/04/23 02:48:12;;;;;;;17.13;15.03;;;11.70;99.90;;;;;;5032009;28;20695;-55
2023/04/23 02:50:42;;;;;;;15.83;14.23;;;11.70;99.90;;;;;;5033079;28;20220;-56
2023/04/23 02:53:10;;;;;;;15.17;13.57;;;11.60;99.90;;;;;;5033596;28;20231;-56
2023/04/23 02:55:38;;;;;;;15.90;13.40;;;11.50;99.90;;;;;;5033184;28;20269;-56
2023/04/23 02:58:06;;;;;;;15.67;13.67;;;11.50;99.90;;;;;;5044586;28;20250;-56
2023/04/23 03:00:36;;;;;;;14.10;12.23;;;11.40;99.90;;;;;;5035940;28;20318;-56
2023/04/23 03:03:05;;;;;;;14.93;12.63;;;11.40;99.90;;;;;;5032865;28;20216;-56
2023/04/23 03:05:33;;;;;;;14.13;12.33;;;11.40;99.90;;;;;;5048283;28;20227;-56
2023/04/23 03:08:02;;;;;;;13.27;11.87;;;11.40;99.90;;;;;;5048633;28;20232;-55
2023/04/23 03:10:31;;;;;;;13.90;12.00;;;11.40;99.90;;;;;;5032959;28;20262;-55
2023/04/23 03:12:59;;;;;;;17.57;12.80;;;11.40;99.90;;;;;;5048577;28;20694;-56
2023/04/23 03:15:28;;;;;;;13.50;12.10;;;11.40;99.90;;;;;;5048253;28;20231;-56
2023/04/23 03:17:56;;;;;;;13.70;12.30;;;11.40;99.90;;;;;;5034070;28;20330;-56
2023/04/23 03:20:25;;;;;;;14.47;12.97;;;11.40;99.90;;;;;;5048174;28;20752;-55
2023/04/23 03:22:53;;;;;;;13.67;12.27;;;11.40;99.90;;;;;;5048021;28;20238;-56
2023/04/23 03:25:24;;;;;;;12.93;11.63;;;11.40;99.90;;;;;;5048489;28;20267;-56
2023/04/23 03:27:55;;;;;;;15.33;13.17;;;11.40;99.90;;;;;;5048209;28;20235;-56
2023/04/23 03:30:24;;;;;;;13.37;11.80;;;11.50;99.90;;;;;;5031076;28;20227;-55
2023/04/23 03:32:55;;;;;;;14.23;12.50;;;11.50;99.90;;;;;;5029325;28;20231;-56
2023/04/23 03:35:23;;;;;;;12.43;10.77;;;11.50;99.90;;;;;;5031397;28;20234;-56
2023/04/23 03:37:54;;;;;;;14.43;11.73;;;11.50;99.90;;;;;;5048058;28;20223;-56
2023/04/23 03:40:25;;;;;;;10.73;9.63;;;11.50;99.90;;;;;;5047955;28;20235;-56
2023/04/23 03:42:58;;;;;;;11.50;9.83;;;11.40;99.90;;;;;;5048186;28;20234;-56
2023/04/23 03:45:50;;;;;;;12.30;9.53;;;11.30;99.90;;;;;;5048054;28;20228;-56
2023/04/23 03:48:19;;;;;;;11.27;9.60;;;11.30;99.90;;;;;;5034352;28;20228;-55
2023/04/23 03:50:48;;;;;;;10.30;9.20;;;11.30;99.90;;;;;;5047554;28;20231;-57
2023/04/23 03:53:32;;;;;;;10.67;8.67;;;11.20;99.90;;;;;;5011379;28;20232;-55
2023/04/23 03:56:20;;;;;;;8.40;7.60;;;11.20;99.90;;;;;;5020010;28;20784;-56
2023/04/23 03:59:01;;;;;;;8.10;7.03;;;11.10;99.90;;;;;;5047912;28;20228;-56
2023/04/23 04:01:35;;;;;;;9.03;6.43;;;11.10;99.90;;;;;;5030552;28;20240;-56
2023/04/23 04:04:03;;;;;;;7.53;6.70;;;11.00;99.90;;;;;;5047887;28;20281;-55
2023/04/23 04:06:33;;;;;;;7.53;6.73;;;10.90;99.90;;;;;;5031012;28;20258;-55
2023/04/23 04:09:01;;;;;;;8.47;6.47;;;10.90;99.90;;;;;;5032485;28;20259;-55
2023/04/23 04:11:33;;;;;;;7.27;6.57;;;10.90;99.90;;;;;;5032592;28;20307;-55
2023/04/23 04:14:04;;;;;;;6.67;5.83;;;10.90;99.90;;;;;;5032361;28;20231;-55
2023/04/23 04:16:32;;;;;;;7.10;6.40;;;10.90;99.90;;;;;;5031850;28;20242;-56
2023/04/23 04:19:01;;;;;;;8.43;6.47;;;10.90;99.90;;;;;;5036083;28;20682;-55
2023/04/23 04:21:31;;;;;;;8.23;5.80;;;10.90;99.90;;;;;;5036202;28;20236;-55
2023/04/23 04:24:00;;;;;;;8.03;5.97;;;10.90;99.90;;;;;;5036420;28;20220;-56
2023/04/23 04:26:28;;;;;;;7.20;5.53;;;10.90;99.90;;;;;;5036312;28;20314;-55
2023/04/23 04:28:58;;;;;;;7.60;6.00;;;10.90;99.90;;;;;;5036012;28;20227;-55
2023/04/23 04:31:27;;;;;;;8.93;5.60;;;10.80;99.90;;;;;;5035363;28;20235;-55
2023/04/23 04:33:55;;;;;;;6.73;5.67;;;10.80;99.90;;;;;;5035925;28;20321;-55
2023/04/23 04:36:26;;;;;;;6.63;5.23;;;10.80;99.90;;;;;;5035086;28;20228;-56
2023/04/23 04:38:57;;;;;;;6.13;5.33;;;10.80;99.90;;;;;;5035764;28;20246;-55
2023/04/23 04:41:26;;;;;;;6.23;4.93;;;10.80;99.90;;;;;;5035377;28;20227;-56
2023/04/23 04:43:55;;;;;;;5.30;4.77;;;10.90;99.90;;;;;;5035688;28;20238;-54
2023/04/23 04:46:27;;;;;;;5.80;5.20;;;10.80;99.90;;;;;;5035976;28;20320;-55
2023/04/23 04:48:56;;;;;;;5.83;4.63;;;10.80;99.90;;;;;;5033076;28;20690;-56
2023/04/23 04:51:25;;;;;;;6.87;5.00;;;10.90;99.90;;;;;;5030928;28;20227;-55
2023/04/23 04:53:53;;;;;;;5.40;4.53;;;10.90;99.90;;;;;;5035938;28;20707;-55
2023/04/23 04:56:22;;;;;;;6.20;5.27;;;10.90;99.90;;;;;;5032557;28;21497;-56
2023/04/23 04:58:55;;;;;;;6.73;5.03;;;10.90;99.90;;;;;;5033452;28;20234;-55
2023/04/23 05:01:25;;;;;;;7.03;5.40;;;10.90;99.90;;;;;;5031035;28;20238;-55
2023/04/23 05:03:54;;;;;;;5.87;4.83;;;10.90;99.90;;;;;;5035162;28;20233;-55
2023/04/23 05:06:22;;;;;;;6.87;5.73;;;10.90;99.90;;;;;;5035767;28;20664;-55
2023/04/23 05:08:50;;;;;;;7.30;5.70;;;11.00;99.90;;;;;;5035321;28;20296;-56
2023/04/23 05:11:19;;;;;;;7.20;6.03;;;10.90;99.90;;;;;;5035579;28;20227;-56
2023/04/23 05:13:50;;;;;;;8.80;6.50;;;10.90;99.90;;;;;;5036222;28;20586;-55
2023/04/23 05:16:20;;;;;;;10.43;7.17;;;11.00;99.90;;;;;;5035296;28;20701;-55
2023/04/23 05:18:52;;;;;;;9.80;7.33;;;10.90;99.90;;;;;;5035901;28;20227;-56
2023/04/23 05:21:20;;;;;;;9.97;7.57;;;10.90;99.90;;;;;;5036223;28;20239;-55
2023/04/23 05:23:48;;;;;;;9.97;8.23;;;10.90;99.90;;;;;;5035149;28;20220;-55
2023/04/23 05:26:17;;;;;;;10.70;8.57;;;10.90;99.90;;;;;;5035017;28;20243;-55
2023/04/23 05:28:45;;;;;;;11.10;7.97;;;10.90;99.90;;;;;;5035694;28;21319;-55
2023/04/23 05:31:14;;;;;;;11.17;8.37;;;10.90;99.90;;;;;;5035162;28;20237;-56
2023/04/23 05:33:43;;;;;;;10.07;8.00;;;10.90;99.90;;;;;;5033790;28;20305;-55
2023/04/23 05:36:19;;;;;;;10.13;8.07;;;11.00;99.90;;;;;;5034841;28;20227;-56
2023/04/23 05:38:47;;;;;;;11.50;8.73;;;11.10;99.90;;;;;;5032621;28;20241;-56
2023/04/23 05:41:15;;;;;;;12.70;9.60;;;11.00;99.90;;;;;;5032541;28;20239;-55
2023/04/23 05:43:46;;;;;;;10.27;8.37;;;11.10;99.90;;;;;;5034695;28;20238;-56
2023/04/23 05:46:14;;;;;;;11.73;9.07;;;11.20;99.90;;;;;;5034515;28;20683;-55
2023/04/23 05:48:43;;;;;;;12.67;9.10;;;11.30;99.90;;;;;;5034498;28;20422;-55
2023/04/23 05:51:11;;;;;;;12.93;9.50;;;11.30;99.90;;;;;;5035176;28;20222;-55
2023/04/23 05:53:41;;;;;;;11.83;8.97;;;11.50;99.90;;;;;;5035226;28;20238;-56
2023/04/23 05:56:09;;;;;;;12.37;8.73;;;11.70;99.90;;;;;;5034753;28;20295;-55
2023/04/23 05:58:38;;;;;;;10.43;8.50;;;11.80;99.90;;;;;;5034736;28;20282;-56
2023/04/23 06:01:06;;;;;;;13.30;8.93;;;11.90;99.90;;;;;;5034028;28;20243;-56
2023/04/23 06:03:35;;;;;;;12.30;8.57;;;12.00;99.90;;;;;;5034538;28;20227;-55
2023/04/23 06:06:04;;;;;;;9.53;8.20;;;12.10;99.90;;;;;;5030873;28;20290;-55
2023/04/23 06:08:32;;;;;;;10.90;9.00;;;12.20;99.90;;;;;;5034172;28;20232;-56
2023/04/23 06:11:04;;;;;;;10.63;9.00;;;12.30;99.90;;;;;;5034193;28;20319;-56
2023/04/23 06:13:35;;;;;;;13.70;9.20;;;12.30;99.90;;;;;;5034123;28;20238;-55
2023/04/23 06:16:03;;;;;;;11.60;9.37;;;12.30;99.90;;;;;;5033733;28;20228;-55
2023/04/23 06:18:32;;;;;;;12.63;9.23;;;12.20;99.90;;;;;;5029664;28;20262;-56
2023/04/23 06:21:03;;;;;;;10.83;9.23;;;12.30;99.90;;;;;;5033800;28;20244;-55
2023/04/23 06:23:31;;;;;;;14.50;9.77;;;12.20;99.90;;;;;;5033727;28;20265;-55
2023/04/23 06:26:04;;;;;;;12.90;10.27;;;12.20;99.90;;;;;;5034146;28;20227;-55
2023/04/23 06:28:35;;;;;;;11.20;9.30;;;12.20;99.90;;;;;;5033984;28;20709;-55
2023/04/23 06:31:33;;;;;;;14.07;10.20;;;12.10;99.90;;;;;;5048775;28;20318;-55
2023/04/23 06:34:05;;;;;;;12.80;9.40;;;12.10;99.90;;;;;;5033406;28;20224;-56
2023/04/23 06:36:34;;;;;;;12.60;10.27;;;12.20;99.90;;;;;;5032497;28;20228;-56
2023/04/23 06:39:02;;;;;;;12.93;10.33;;;12.20;99.90;;;;;;5031373;28;20235;-56
2023/04/23 06:41:32;;;;;;;11.57;10.00;;;12.20;99.90;;;;;;5020781;28;20241;-56
2023/04/23 06:44:17;;;;;;;14.20;10.03;;;12.20;99.90;;;;;;5014660;28;20248;-56
2023/04/23 06:46:51;;;;;;;12.00;10.17;;;12.30;99.90;;;;;;5017291;28;20239;-55
2023/04/23 06:49:20;;;;;;;11.93;9.97;;;12.30;99.90;;;;;;5015951;28;20702;-56
2023/04/23 06:51:48;;;;;;;12.83;10.23;;;12.20;99.90;;;;;;5018349;28;20226;-56
2023/04/23 06:54:16;;;;;;;14.50;11.10;;;12.20;99.90;;;;;;5018115;28;20227;-57
2023/04/23 06:56:47;;;;;;;16.73;12.33;;;12.20;99.90;;;;;;5018733;28;20326;-55
2023/04/23 06:59:15;;;;;;;12.50;10.60;;;12.10;99.90;;;;;;5018882;28;20574;-57
2023/04/23 07:01:46;;;;;;;15.90;12.17;;;12.10;99.90;;;;;;5018341;28;20293;-56
2023/04/23 07:04:17;;;;;;;14.87;13.17;;;12.20;99.90;;;;;;5020275;28;20235;-56
2023/04/23 07:06:45;;;;;;;15.00;13.03;;;12.20;99.90;;;;;;5020560;28;20304;-55
2023/04/23 07:09:13;;;;;;;14.57;12.80;;;12.20;99.90;;;;;;5019465;28;20838;-57
2023/04/23 07:11:44;;;;;;;16.67;13.00;;;12.30;99.90;;;;;;5020670;28;20242;-55
2023/04/23 07:14:14;;;;;;;16.67;13.47;;;12.30;99.90;;;;;;5018821;28;20247;-57
2023/04/23 07:16:45;;;;;;;19.43;14.30;;;12.40;99.90;;;;;;5018095;28;20234;-57
2023/04/23 07:19:13;;;;;;;17.03;14.10;;;12.40;99.90;;;;;;5016977;28;20355;-57
2023/04/23 07:21:41;;;;;;;16.53;14.00;;;12.50;99.90;;;;;;5017712;28;20248;-57
2023/04/23 07:24:10;;;;;;;16.17;13.57;;;12.50;99.90;;;;;;5017351;28;20237;-56
2023/04/23 07:26:38;;;;;;;15.33;13.73;;;12.60;99.90;;;;;;5019951;28;20234;-57
2023/04/23 07:29:06;;;;;;;15.43;13.47;;;12.70;99.90;;;;;;5019067;28;20246;-55
2023/04/23 07:31:36;;;;;;;20.37;13.80;;;12.90;99.90;;;;;;5019336;28;20231;-58
2023/04/23 07:34:04;;;;;;;16.03;13.90;;;13.00;99.90;;;;;;5020205;28;20587;-57
2023/04/23 07:36:32;;;;;;;15.97;12.50;;;13.10;99.90;;;;;;5019500;28;20235;-57
2023/04/23 07:39:01;;;;;;;16.70;14.17;;;13.10;99.90;;;;;;5018221;28;20232;-56
2023/04/23 07:41:29;;;;;;;14.77;13.17;;;13.20;99.90;;;;;;5019733;28;20240;-56
2023/04/23 07:43:57;;;;;;;15.97;13.43;;;13.20;99.90;;;;;;5020527;28;20224;-56
2023/04/23 07:46:28;;;;;;;15.53;13.33;;;13.10;99.90;;;;;;5019699;28;20251;-55
2023/04/23 07:48:58;;;;;;;14.90;12.67;;;13.10;99.90;;;;;;5023753;28;20242;-57
2023/04/23 07:51:27;;;;;;;15.93;13.07;;;13.20;99.90;;;;;;5026946;28;20231;-56
2023/04/23 07:53:57;;;;;;;15.23;13.53;;;13.20;99.90;;;;;;5026585;28;20243;-56
2023/04/23 07:56:25;;;;;;;17.63;14.00;;;13.30;99.90;;;;;;5026611;28;20580;-56
2023/04/23 07:58:55;;;;;;;15.33;13.67;;;13.40;99.90;;;;;;5025631;28;20235;-56
2023/04/23 08:01:23;;;;;;;16.93;13.77;;;13.40;99.90;;;;;;5025667;28;20243;-56
2023/04/23 08:03:54;;;;;;;18.47;13.50;;;13.30;99.90;;;;;;5041297;28;20368;-57
2023/04/23 08:06:28;;;;;;;16.50;13.87;;;13.40;99.90;;;;;;5026775;28;20246;-55
2023/04/23 08:08:57;;;;;;;15.67;14.00;;;13.50;99.90;;;;;;5025761;28;21561;-56
2023/04/23 08:11:25;;;;;;;14.33;12.37;;;13.40;99.90;;;;;;5026130;28;20318;-56
2023/04/23 08:13:53;;;;;;;15.23;13.63;;;13.60;99.90;;;;;;5026379;28;20231;-57
2023/04/23 08:16:21;;;;;;;15.30;13.13;;;13.70;99.90;;;;;;5026756;28;20687;-57
2023/04/23 08:18:49;;;;;;;15.97;13.70;;;13.80;99.90;;;;;;5025044;28;20245;-57
2023/04/23 08:21:34;;;;;;;16.50;13.80;;;14.00;99.90;;;;;;5023940;28;20228;-56
2023/04/23 08:24:03;;;;;;;15.43;13.83;;;14.20;99.90;;;;;;5024716;28;20699;-56
2023/04/23 08:26:31;;;;;;;14.47;12.97;;;14.30;99.90;;;;;;5023669;28;20255;-56
2023/04/23 08:28:59;;;;;;;14.07;12.67;;;14.70;99.90;;;;;;5023106;28;20236;-57
2023/04/23 08:31:27;;;;;;;15.07;13.57;;;15.10;99.90;;;;;;5025976;28;20232;-56
2023/04/23 08:33:56;;;;;;;14.23;12.77;;;15.40;99.90;;;;;;5025655;28;20363;-56
2023/04/23 08:36:24;;;;;;;13.80;12.40;;;15.90;99.90;;;;;;5023480;28;20232;-57
2023/04/23 08:38:54;;;;;;;13.83;12.13;;;16.10;99.90;;;;;;5022055;28;20228;-57
2023/04/23 08:41:25;;;;;;;14.23;12.47;;;16.30;99.90;;;;;;5023667;28;20229;-58
2023/04/23 08:44:05;;;;;;;13.67;12.27;;;16.40;99.90;;;;;;5023583;28;20243;-57
2023/04/23 08:46:36;;;;;;;14.13;12.33;;;16.40;99.90;;;;;;5025921;28;20698;-57
2023/04/23 08:49:07;;;;;;;11.47;10.27;;;16.30;99.90;;;;;;5025193;28;20232;-56
2023/04/23 08:51:39;;;;;;;14.90;12.10;;;16.70;99.90;;;;;;5025902;28;20583;-56
2023/04/23 08:54:15;;;;;;;14.07;12.03;;;17.10;99.90;;;;;;5022922;28;21105;-58
2023/04/23 08:56:45;;;;;;;12.50;11.20;;;17.30;99.90;;;;;;5023424;28;20786;-57
2023/04/23 08:59:13;;;;;;;14.23;12.63;;;17.60;99.90;;;;;;5021220;28;20251;-57
2023/04/23 09:01:42;;;;;;;13.20;10.80;;;17.50;99.90;;;;;;5018835;28;20245;-57
2023/04/23 09:04:10;;;;;;;12.07;10.87;;;18.10;99.90;;;;;;5019737;28;20230;-58
2023/04/23 09:06:38;;;;;;;13.10;11.80;;;18.60;99.90;;;;;;5020022;28;20237;-57
2023/04/23 09:09:09;;;;;;;12.73;11.43;;;18.60;99.90;;;;;;5018472;28;20230;-56
2023/04/23 09:11:37;;;;;;;12.83;11.47;;;18.00;99.90;;;;;;5019840;28;20322;-57
2023/04/23 09:14:05;;;;;;;12.73;11.47;;;17.70;99.90;;;;;;5019251;28;20221;-57
2023/04/23 09:16:33;;;;;;;12.83;11.50;;;17.50;99.90;;;;;;5019173;28;20233;-58
2023/04/23 09:19:02;;;;;;;12.43;11.13;;;17.70;99.90;;;;;;5017841;28;20229;-57
2023/04/23 09:21:30;;;;;;;13.60;12.30;;;18.10;99.90;;;;;;5018819;28;20234;-57
2023/04/23 09:23:58;;;;;;;11.73;10.53;;;18.30;99.90;;;;;;5019202;28;21711;-58
2023/04/23 09:26:28;;;;;;;14.00;12.53;;;19.00;99.90;;;;;;5019359;28;20229;-57
2023/04/23 09:28:56;;;;;;;14.30;12.90;;;19.30;99.90;;;;;;5018375;28;20241;-58
2023/04/23 09:31:24;;;;;;;14.93;13.30;;;19.50;99.90;;;;;;5019766;28;20720;-58
2023/04/23 09:33:53;;;;;;;13.07;11.50;;;19.40;99.90;;;;;;5019239;28;20262;-58
2023/04/23 09:36:22;;;;;;;14.10;12.80;;;19.80;99.90;;;;;;5018766;28;20238;-57
2023/04/23 09:38:50;;;;;;;14.93;13.43;;;20.00;99.90;;;;;;5017075;28;20266;-58
2023/04/23 09:41:29;;;;;;;15.90;14.40;;;20.10;99.90;;;;;;5019368;28;20237;-58
2023/04/23 09:43:57;;;;;;;16.67;14.97;;;20.10;99.90;;;;;;5019543;28;20242;-57
2023/04/23 09:46:36;;;;;;;15.70;14.20;;;20.20;99.90;;;;;;5019278;28;20238;-58
2023/04/23 09:49:06;;;;;;;15.97;14.47;;;20.60;99.90;;;;;;5018688;28;20565;-58
2023/04/23 09:51:36;;;;;;;17.20;15.50;;;20.80;99.90;;;;;;5019414;28;20605;-58
2023/04/23 09:54:05;;;;;;;16.93;15.30;;;20.80;99.90;;;;;;5020165;28;20232;-58
2023/04/23 09:56:36;;;;;;;15.87;14.37;;;21.10;99.90;;;;;;5018721;28;20232;-58
2023/04/23 09:59:19;;;;;;;13.47;12.27;;;21.10;99.90;;;;;;5018844;28;20236;-58
2023/04/23 10:02:06;;;;;;;12.30;10.93;;;21.20;99.90;;;;;;5019288;28;20243;-59
2023/04/23 10:04:35;;;;;;;11.50;10.40;;;21.30;99.90;;;;;;5019485;28;21280;-57
2023/04/23 10:07:07;;;;;;;9.73;8.83;;;21.40;99.90;;;;;;5019716;28;20232;-59
2023/04/23 10:09:47;;;;;;;11.17;10.07;;;21.50;99.90;;;;;;5018063;28;20256;-58
2023/04/23 10:12:17;;;;;;;11.33;10.30;;;21.60;99.90;;;;;;5018126;28;20541;-59
2023/04/23 10:15:07;;;;;;;11.83;10.73;;;21.60;99.90;;;;;;5019277;28;20217;-59
2023/04/23 10:17:36;;;;;;;10.73;9.70;;;21.50;99.90;;;;;;5020149;28;20718;-58
2023/04/23 10:20:05;;;;;;;9.90;8.97;;;21.50;99.90;;;;;;5016211;28;20267;-59
2023/04/23 10:22:35;;;;;;;9.60;8.60;;;21.70;99.90;;;;;;5018269;28;20308;-58
2023/04/23 10:25:07;;;;;;;9.53;8.33;;;21.60;99.90;;;;;;5018516;28;20596;-58
2023/04/23 10:27:39;;;;;;;9.93;8.93;;;21.80;99.90;;;;;;5018123;28;20229;-58
2023/04/23 10:30:21;;;;;;;10.33;9.33;;;22.10;99.90;;;;;;5016594;28;20244;-59
2023/04/23 10:32:50;;;;;;;9.57;8.53;;;21.90;99.90;;;;;;5018263;28;20232;-58
2023/04/23 10:35:19;;;;;;;10.90;8.33;;;21.90;99.90;;;;;;5018510;28;20224;-59
2023/04/23 10:37:48;;;;;;;8.80;7.97;;;22.10;99.90;;;;;;5019760;28;20237;-59
2023/04/23 10:40:21;;;;;;;8.13;7.37;;;22.30;99.90;;;;;;5020036;28;20228;-59
2023/04/23 10:42:51;;;;;;;10.50;9.47;;;22.60;99.90;;;;;;5021099;28;20271;-58
2023/04/23 10:45:20;;;;;;;8.60;7.80;;;22.50;99.90;;;;;;5018288;28;20236;-58
2023/04/23 10:47:54;;;;;;;9.10;8.10;;;22.70;99.90;;;;;;5017906;28;20725;-59
2023/04/23 10:50:24;;;;;;;9.43;7.90;;;22.40;99.90;;;;;;5016502;28;20939;-58
2023/04/23 10:52:55;;;;;;;8.27;7.40;;;22.30;99.90;;;;;;5017907;28;20227;-59
2023/04/23 10:55:27;;;;;;;8.67;7.80;;;22.50;99.90;;;;;;5017458;28;20225;-59
2023/04/23 10:58:01;;;;;;;10.10;9.20;;;22.60;99.90;;;;;;5017859;28;21039;-58
2023/04/23 11:00:42;;;;;;;9.07;8.17;;;22.50;99.90;;;;;;5015706;28;20231;-58
2023/04/23 11:03:31;;;;;;;8.90;8.10;;;22.50;99.90;;;;;;5018097;28;20335;-58
2023/04/23 11:06:04;;;;;;;9.03;8.23;;;22.90;99.90;;;;;;5018171;28;20318;-59
2023/04/23 11:08:35;;;;;;;9.27;8.37;;;22.70;99.90;;;;;;5017129;28;20233;-59
2023/04/23 11:11:07;;;;;;;9.97;8.80;;;22.50;99.90;;;;;;5017783;28;20707;-59
2023/04/23 11:13:50;;;;;;;8.03;7.27;;;22.70;99.90;;;;;;5016877;28;21010;-59
2023/04/23 11:16:22;;;;;;;7.50;6.80;;;23.00;99.90;;;;;;5017936;28;20243;-59
2023/04/23 11:19:02;;;;;;;9.10;8.30;;;22.90;99.90;;;;;;5016569;28;20701;-58
2023/04/23 11:22:02;;;;;;;8.43;7.67;;;22.10;99.90;;;;;;5018184;28;20787;-58
2023/04/23 11:24:32;;;;;;;8.40;7.37;;;21.80;99.90;;;;;;5019250;28;20241;-58
2023/04/23 11:27:01;;;;;;;7.97;6.87;;;22.30;99.90;;;;;;5019935;28;20228;-59
2023/04/23 11:29:31;;;;;;;8.37;7.50;;;22.80;99.90;;;;;;5018592;28;20929;-58
2023/04/23 11:31:59;;;;;;;8.07;6.53;;;22.90;99.90;;;;;;5019153;28;20236;-59
2023/04/23 11:34:32;;;;;;;8.43;7.63;;;23.20;99.90;;;;;;5019909;28;20741;-58
2023/04/23 11:37:01;;;;;;;6.90;6.30;;;23.50;99.90;;;;;;5019961;28;21202;-58
2023/04/23 11:39:29;;;;;;;6.30;5.80;;;23.30;99.90;;;;;;5018624;28;20592;-59
2023/04/23 11:41:58;;;;;;;6.17;5.67;;;23.20;99.90;;;;;;5018050;28;20580;-58
2023/04/23 11:44:27;;;;;;;7.30;6.27;;;23.40;99.90;;;;;;5017185;28;20233;-58
2023/04/23 11:47:00;;;;;;;6.70;6.00;;;23.30;99.90;;;;;;5017651;28;20235;-58
2023/04/23 11:49:28;;;;;;;6.60;5.83;;;23.30;99.90;;;;;;5016466;28;21257;-59
2023/04/23 11:52:00;;;;;;;6.93;5.80;;;23.40;99.90;;;;;;5017846;28;20234;-59
2023/04/23 11:54:29;;;;;;;7.03;6.40;;;23.50;99.90;;;;;;5019394;28;21286;-58
2023/04/23 11:56:58;;;;;;;6.17;5.50;;;23.50;99.90;;;;;;5018989;28;20226;-59
2023/04/23 11:59:26;;;;;;;7.00;6.40;;;23.40;99.90;;;;;;5017893;28;20719;-58
2023/04/23 12:01:58;;;;;;;6.53;5.27;;;22.90;99.90;;;;;;5018421;28;20768;-59
2023/04/23 12:04:27;;;;;;;5.70;4.80;;;22.70;99.90;;;;;;5019223;28;20256;-58
2023/04/23 12:06:57;;;;;;;5.57;5.07;;;22.60;99.90;;;;;;5018996;28;20303;-58
2023/04/23 12:09:27;;;;;;;6.23;5.63;;;22.50;99.90;;;;;;5016091;28;20237;-58
2023/04/23 12:11:58;;;;;;;6.23;5.63;;;22.50;99.90;;;;;;5016889;28;20233;-58
2023/04/23 12:14:28;;;;;;;6.33;5.83;;;22.20;99.90;;;;;;5017129;28;20236;-58
2023/04/23 12:17:08;;;;;;;5.47;4.93;;;22.00;99.90;;;;;;5017769;28;20306;-59
2023/04/23 12:19:37;;;;;;;5.50;5.00;;;21.80;99.90;;;;;;5015635;28;20247;-59
2023/04/23 12:22:07;;;;;;;5.67;5.07;;;21.60;99.90;;;;;;5017028;28;20232;-58
2023/04/23 12:24:47;;;;;;;6.03;5.43;;;21.80;99.90;;;;;;5017158;28;20328;-58
2023/04/23 12:27:18;;;;;;;6.03;5.53;;;22.00;99.90;;;;;;5018895;28;20255;-58
2023/04/23 12:29:47;;;;;;;5.90;5.30;;;22.00;99.90;;;;;;5018011;28;20236;-58
2023/04/23 12:32:17;;;;;;;5.80;5.30;;;21.90;99.90;;;;;;5017014;28;20241;-58
2023/04/23 12:34:52;;;;;;;6.63;6.03;;;21.90;99.90;;;;;;5017814;28;20231;-58
2023/04/23 12:37:25;;;;;;;6.90;5.20;;;22.00;99.90;;;;;;5021013;28;20739;-59
2023/04/23 12:39:55;;;;;;;7.40;5.90;;;22.00;99.90;;;;;;5019132;28;20252;-59
2023/04/23 12:42:23;;;;;;;7.60;5.97;;;22.10;99.90;;;;;;5020669;28;20791;-59
2023/04/23 12:44:54;;;;;;;6.63;6.03;;;21.80;99.90;;;;;;5020530;28;20229;-59
2023/04/23 12:47:24;;;;;;;7.63;6.80;;;21.50;99.90;;;;;;5022265;28;20228;-59
2023/04/23 12:49:54;;;;;;;7.83;6.60;;;21.00;99.90;;;;;;5021411;28;20232;-58